Time;durP1;ratioP1;P1;durP2;ratioP2;P2;SDS_P1;SDS_P2;PMS_P1;PMS_P2;Temp;Humidity;BMP_temperature;BMP_pressure;BME280_temperature;BME280_humidity;BME280_pressure;Samples;Min_cycle;Max_cycle;Signal;HPM_P1;HPM_P2
2023/06/29 00:01:05;;;;;;;2.63;1.67;;;;;;;17.92;69.55;100181.38;4965724;28;20146;-45
2023/06/29 00:03:32;;;;;;;2.60;1.02;;;;;;;17.90;69.71;100180.56;4980747;28;20497;-44
2023/06/29 00:06:01;;;;;;;2.15;1.80;;;;;;;17.89;69.15;100176.22;4982690;28;20046;-45
2023/06/29 00:08:35;;;;;;;2.35;2.15;;;;;;;17.86;68.73;100171.09;4982699;28;20058;-45
2023/06/29 00:11:03;;;;;;;2.90;2.08;;;;;;;17.83;69.80;100171.16;4980420;28;20072;-44
2023/06/29 00:13:30;;;;;;;2.17;1.88;;;;;;;17.81;69.74;100162.53;4979825;28;20077;-46
2023/06/29 00:15:56;;;;;;;3.08;2.33;;;;;;;17.79;69.35;100166.94;4977824;28;20074;-44
2023/06/29 00:18:28;;;;;;;3.97;2.75;;;;;;;17.79;69.26;100164.31;4979156;28;20050;-44
2023/06/29 00:20:54;;;;;;;2.97;1.88;;;;;;;17.76;70.19;100160.03;4977952;28;20137;-43
2023/06/29 00:23:21;;;;;;;3.10;1.92;;;;;;;17.74;69.14;100161.84;4984155;28;20061;-47
2023/06/29 00:25:48;;;;;;;2.78;2.08;;;;;;;17.72;69.97;100169.75;4978587;28;20046;-45
2023/06/29 00:28:14;;;;;;;3.15;2.40;;;;;;;17.71;69.64;100168.06;4976629;28;20053;-47
2023/06/29 00:30:41;;;;;;;2.90;2.55;;;;;;;17.71;70.08;100162.81;4976281;28;20108;-48
2023/06/29 00:33:07;;;;;;;2.97;2.67;;;;;;;17.72;70.14;100161.91;4978435;28;20089;-45
2023/06/29 00:35:34;;;;;;;2.75;2.45;;;;;;;17.72;69.32;100169.75;4982993;28;20093;-46
2023/06/29 00:38:01;;;;;;;3.67;2.85;;;;;;;17.72;70.09;100182.84;4984133;28;20073;-46
2023/06/29 00:40:28;;;;;;;4.45;3.78;;;;;;;17.72;69.82;100175.00;4983667;28;20061;-43
2023/06/29 00:42:55;;;;;;;4.13;3.13;;;;;;;17.72;69.46;100175.00;4976496;28;20055;-44
2023/06/29 00:45:21;;;;;;;4.85;3.65;;;;;;;17.72;69.91;100175.00;4981171;28;20052;-46
2023/06/29 00:47:48;;;;;;;5.35;4.10;;;;;;;17.71;69.59;100175.91;4981751;28;20050;-48
2023/06/29 00:50:16;;;;;;;6.07;4.63;;;;;;;17.70;69.44;100171.56;4983747;28;20078;-46
2023/06/29 00:52:43;;;;;;;6.80;5.13;;;;;;;17.66;70.33;100164.69;4980703;28;20081;-46
2023/06/29 00:55:10;;;;;;;8.60;4.53;;;;;;;17.63;69.53;100170.03;4982080;28;20058;-43
2023/06/29 00:57:38;;;;;;;14.15;4.93;;;;;;;17.60;70.70;100164.91;4983643;28;20054;-46
2023/06/29 01:00:10;;;;;;;6.28;4.55;;;;;;;17.57;70.30;100159.75;4972769;28;20050;-45
2023/06/29 01:02:40;;;;;;;8.48;4.93;;;;;;;17.55;70.33;100145.84;4966563;28;20554;-46
2023/06/29 01:05:09;;;;;;;9.27;4.78;;;;;;;17.53;69.56;100131.94;4964699;28;20088;-46
2023/06/29 01:07:49;;;;;;;7.70;5.13;;;;;;;17.47;70.37;100128.59;4966113;28;20068;-44
2023/06/29 01:10:23;;;;;;;8.13;5.03;;;;;;;17.49;70.46;100148.66;4959827;28;20549;-48
2023/06/29 01:12:52;;;;;;;6.90;5.05;;;;;;;17.46;70.01;100157.44;4961588;28;20043;-44
2023/06/29 01:15:20;;;;;;;6.80;5.43;;;;;;;17.44;70.09;100157.50;4965241;28;20719;-46
2023/06/29 01:17:50;;;;;;;6.85;4.72;;;;;;;17.42;70.57;100156.69;4965516;28;20043;-45
2023/06/29 01:20:18;;;;;;;7.95;5.40;;;;;;;17.39;69.72;100148.91;4965827;28;20047;-47
2023/06/29 01:22:59;;;;;;;7.65;5.07;;;;;;;17.30;70.37;100152.66;4956657;28;20097;-48
2023/06/29 01:25:27;;;;;;;8.80;3.97;;;;;;;17.31;70.11;100164.00;4963797;28;20093;-47
2023/06/29 01:27:53;;;;;;;7.15;4.95;;;;;;;17.28;70.52;100164.94;4959900;28;20047;-49
2023/06/29 01:30:21;;;;;;;7.28;4.75;;;;;;;17.26;70.54;100166.72;4964313;28;20058;-45
2023/06/29 01:32:48;;;;;;;6.90;5.00;;;;;;;17.25;70.20;100169.41;4977490;28;20057;-43
2023/06/29 01:35:15;;;;;;;9.55;5.10;;;;;;;17.25;70.61;100169.41;4978819;28;20145;-46
2023/06/29 01:37:47;;;;;;;7.45;4.68;;;;;;;17.23;70.06;100165.97;4976833;28;20054;-43
2023/06/29 01:40:17;;;;;;;9.65;5.75;;;;;;;17.17;70.11;100157.41;4978302;28;20105;-47
2023/06/29 01:42:47;;;;;;;9.75;5.15;;;;;;;17.14;70.21;100157.50;4975323;28;20047;-45
2023/06/29 01:45:14;;;;;;;8.57;5.43;;;;;;;17.11;70.22;100152.34;4978389;28;20059;-46
2023/06/29 01:47:41;;;;;;;7.43;5.35;;;;;;;17.08;70.09;100163.75;4977539;28;20046;-46
2023/06/29 01:50:09;;;;;;;9.63;5.22;;;;;;;17.06;70.13;100169.94;4976198;28;20055;-46
2023/06/29 01:52:36;;;;;;;7.95;4.78;;;;;;;17.03;70.32;100177.84;4972040;28;20349;-44
2023/06/29 01:55:03;;;;;;;9.75;5.50;;;;;;;17.01;70.53;100177.00;4975831;28;20058;-45
2023/06/29 01:57:30;;;;;;;9.25;5.95;;;;;;;16.99;70.37;100173.59;4975589;28;20050;-44
2023/06/29 01:59:57;;;;;;;9.93;5.65;;;;;;;16.96;70.57;100170.13;4961491;28;20115;-44
2023/06/29 02:02:23;;;;;;;8.32;5.65;;;;;;;16.94;70.29;100166.72;4978901;28;20058;-44
2023/06/29 02:04:50;;;;;;;8.82;5.18;;;;;;;16.92;70.49;100163.28;4980110;28;20275;-46
2023/06/29 02:07:17;;;;;;;9.20;5.13;;;;;;;16.91;70.99;100152.84;4985700;28;20506;-45
2023/06/29 02:09:43;;;;;;;8.57;5.82;;;;;;;16.88;70.62;100145.94;4977957;28;20042;-44
2023/06/29 02:12:12;;;;;;;8.95;5.85;;;;;;;16.91;70.29;100160.69;4980020;28;20188;-44
2023/06/29 02:14:39;;;;;;;7.95;5.53;;;;;;;16.86;71.12;100163.47;4980185;28;20509;-50
2023/06/29 02:17:06;;;;;;;8.15;5.40;;;;;;;16.85;70.98;100160.88;4977560;28;20053;-44
2023/06/29 02:19:32;;;;;;;7.68;5.32;;;;;;;16.82;70.41;100172.28;4979486;28;20062;-45
2023/06/29 02:21:59;;;;;;;9.45;5.55;;;;;;;16.82;71.40;100167.06;4977466;28;20156;-43
2023/06/29 02:24:26;;;;;;;9.98;4.25;;;;;;;16.79;71.53;100161.91;4986548;28;20065;-45
2023/06/29 02:26:52;;;;;;;7.70;5.13;;;;;;;16.73;70.70;100143.75;4981657;28;20042;-45
2023/06/29 02:29:19;;;;;;;10.93;5.15;;;;;;;16.70;71.24;100147.31;4977955;28;20061;-47
2023/06/29 02:31:46;;;;;;;8.60;5.72;;;;;;;16.69;71.24;100154.28;4981688;28;20046;-47
2023/06/29 02:34:13;;;;;;;7.82;5.90;;;;;;;16.69;71.14;100156.91;4982423;28;20046;-47
2023/06/29 02:36:40;;;;;;;9.57;5.72;;;;;;;16.69;70.96;100167.38;4985804;28;20046;-47
2023/06/29 02:39:07;;;;;;;10.20;6.43;;;;;;;16.69;71.60;100167.38;4985236;28;20055;-45
2023/06/29 02:41:33;;;;;;;10.35;6.00;;;;;;;16.70;71.22;100182.19;4981111;28;20043;-45
2023/06/29 02:44:00;;;;;;;9.77;5.72;;;;;;;16.70;71.15;100178.69;4990976;28;20046;-49
2023/06/29 02:46:27;;;;;;;9.90;6.03;;;;;;;16.71;70.76;100164.72;4981009;28;20050;-47
2023/06/29 02:48:53;;;;;;;9.30;6.30;;;;;;;16.67;71.11;100147.38;4987491;28;20038;-44
2023/06/29 02:51:20;;;;;;;12.07;6.22;;;;;;;16.66;71.56;100151.78;4983047;28;20047;-46
2023/06/29 02:53:46;;;;;;;11.20;6.28;;;;;;;16.65;71.71;100150.03;4981509;28;20055;-45
2023/06/29 02:56:13;;;;;;;10.40;5.53;;;;;;;16.63;71.79;100154.47;4980071;28;20051;-44
2023/06/29 02:58:40;;;;;;;13.18;5.53;;;;;;;16.61;71.11;100158.88;4983582;28;20054;-45
2023/06/29 03:01:06;;;;;;;12.93;6.10;;;;;;;16.62;71.54;100157.13;4982876;28;20050;-48
2023/06/29 03:03:33;;;;;;;9.40;5.72;;;;;;;16.60;71.94;100151.06;4985294;28;20054;-46
2023/06/29 03:06:00;;;;;;;9.48;6.22;;;;;;;16.59;71.19;100155.44;4987444;28;20049;-45
2023/06/29 03:08:26;;;;;;;9.82;6.25;;;;;;;16.57;71.52;100147.66;4986244;28;20724;-50
2023/06/29 03:10:53;;;;;;;11.30;6.75;;;;;;;16.54;72.01;100137.25;4987503;28;20038;-45
2023/06/29 03:13:20;;;;;;;10.98;5.72;;;;;;;16.51;70.96;100147.78;4989929;28;20616;-49
2023/06/29 03:15:46;;;;;;;12.23;5.28;;;;;;;16.50;71.72;100140.00;4981046;28;20050;-47
2023/06/29 03:18:13;;;;;;;8.27;5.10;;;;;;;16.48;71.58;100136.56;4985622;28;20050;-47
2023/06/29 03:20:40;;;;;;;7.95;5.07;;;;;;;16.47;71.91;100147.91;4982298;28;20583;-45
2023/06/29 03:23:06;;;;;;;8.57;5.63;;;;;;;16.44;72.10;100143.63;4979602;28;20057;-45
2023/06/29 03:25:33;;;;;;;7.80;4.93;;;;;;;16.43;71.51;100153.22;4982312;28;20054;-44
2023/06/29 03:27:59;;;;;;;13.88;5.85;;;;;;;16.40;71.89;100140.25;4979414;28;20077;-49
2023/06/29 03:30:26;;;;;;;8.07;5.80;;;;;;;16.38;71.71;100147.25;4979331;28;20057;-47
2023/06/29 03:32:53;;;;;;;8.77;5.47;;;;;;;16.37;71.80;100145.53;4980394;28;20046;-47
2023/06/29 03:35:20;;;;;;;8.10;4.60;;;;;;;16.36;72.05;100149.06;4983072;28;20150;-47
2023/06/29 03:37:47;;;;;;;8.80;5.75;;;;;;;16.35;71.65;100151.69;4974711;28;20137;-44
2023/06/29 03:40:13;;;;;;;8.45;5.10;;;;;;;16.33;71.82;100146.50;4980431;28;20078;-45
2023/06/29 03:42:40;;;;;;;8.43;5.22;;;;;;;16.33;71.87;100151.75;4985201;28;20103;-47
2023/06/29 03:45:07;;;;;;;8.65;4.93;;;;;;;16.34;72.16;100148.22;4979833;28;20108;-46
2023/06/29 03:47:34;;;;;;;9.52;4.90;;;;;;;16.32;72.21;100150.03;4983471;28;20057;-47
2023/06/29 03:50:00;;;;;;;13.82;6.60;;;;;;;16.32;71.85;100155.25;4981885;28;20052;-47
2023/06/29 03:52:27;;;;;;;9.52;5.40;;;;;;;16.32;71.59;100152.66;4980772;28;20129;-46
2023/06/29 03:54:54;;;;;;;11.00;5.03;;;;;;;16.33;72.05;100156.97;4979803;28;20049;-46
2023/06/29 03:57:20;;;;;;;8.73;5.07;;;;;;;16.32;71.97;100152.66;4985108;28;20053;-45
2023/06/29 03:59:47;;;;;;;7.75;5.43;;;;;;;16.32;71.65;100150.88;4977115;28;20054;-44
2023/06/29 04:02:13;;;;;;;9.02;5.45;;;;;;;16.32;71.86;100148.25;4980760;28;20046;-46
2023/06/29 04:04:40;;;;;;;8.88;5.25;;;;;;;16.31;71.84;100151.78;4984696;28;20238;-44
2023/06/29 04:07:07;;;;;;;6.60;4.18;;;;;;;16.31;72.33;100145.69;4980412;28;20055;-47
2023/06/29 04:09:33;;;;;;;7.93;4.50;;;;;;;16.30;72.29;100157.03;4980784;28;20101;-45
2023/06/29 04:12:00;;;;;;;7.68;4.53;;;;;;;16.27;72.33;100155.38;4984141;28;20173;-45
2023/06/29 04:14:27;;;;;;;9.52;4.50;;;;;;;16.26;71.63;100161.50;4985585;28;20053;-46
2023/06/29 04:16:53;;;;;;;8.07;4.05;;;;;;;16.27;72.37;100180.63;4977021;28;20380;-46
2023/06/29 04:19:20;;;;;;;7.38;4.60;;;;;;;16.25;71.90;100188.50;4981307;28;20062;-46
2023/06/29 04:21:47;;;;;;;7.57;4.03;;;;;;;16.24;72.01;100186.78;4980674;28;20050;-47
2023/06/29 04:24:13;;;;;;;6.13;3.45;;;;;;;16.23;72.26;100178.97;4986068;28;20452;-49
2023/06/29 04:26:41;;;;;;;7.30;4.55;;;;;;;16.24;71.82;100185.94;4982600;28;20050;-46
2023/06/29 04:29:07;;;;;;;8.02;3.58;;;;;;;16.21;72.45;100191.25;4976294;28;20997;-46
2023/06/29 04:31:34;;;;;;;6.63;4.53;;;;;;;16.23;72.01;100202.50;4976690;28;20042;-44
2023/06/29 04:34:04;;;;;;;9.75;4.63;;;;;;;16.23;72.35;100205.13;4983574;28;20520;-46
2023/06/29 04:36:31;;;;;;;7.05;4.63;;;;;;;16.23;71.95;100202.50;4990689;28;20053;-43
2023/06/29 04:38:58;;;;;;;6.25;4.50;;;;;;;16.22;72.27;100193.81;4981122;28;20130;-50
2023/06/29 04:41:31;;;;;;;6.95;4.03;;;;;;;16.19;72.31;100184.28;4979446;28;20042;-49
2023/06/29 04:43:59;;;;;;;12.75;3.90;;;;;;;16.16;72.21;100179.16;4977182;28;20066;-44
2023/06/29 04:46:28;;;;;;;8.05;3.85;;;;;;;16.14;72.23;100180.94;4975509;28;20054;-48
2023/06/29 04:48:55;;;;;;;6.60;3.72;;;;;;;16.11;71.71;100191.44;4981978;28;20053;-45
2023/06/29 04:51:22;;;;;;;6.70;4.03;;;;;;;16.10;71.93;100189.75;4982593;28;20055;-44
2023/06/29 04:53:48;;;;;;;7.30;3.55;;;;;;;16.08;72.05;100191.53;4989716;28;20046;-44
2023/06/29 04:56:15;;;;;;;5.90;3.17;;;;;;;16.08;72.11;100193.28;4987055;28;20049;-47
2023/06/29 04:58:42;;;;;;;6.10;3.88;;;;;;;16.06;72.32;100193.31;4983834;28;20045;-44
2023/06/29 05:01:08;;;;;;;8.35;3.78;;;;;;;16.05;72.61;100192.44;4975677;28;20054;-45
2023/06/29 05:03:35;;;;;;;5.78;3.47;;;;;;;16.04;71.80;100187.25;4982695;28;20093;-47
2023/06/29 05:06:02;;;;;;;10.98;4.43;;;;;;;16.03;72.16;100193.38;4983555;28;20050;-45
2023/06/29 05:08:30;;;;;;;6.15;4.10;;;;;;;16.03;72.63;100194.25;4982510;28;20254;-45
2023/06/29 05:10:56;;;;;;;7.97;4.40;;;;;;;16.02;72.49;100186.44;4981369;28;20046;-49
2023/06/29 05:13:23;;;;;;;7.68;5.07;;;;;;;16.01;72.56;100190.81;4979130;28;20054;-50
2023/06/29 05:15:49;;;;;;;7.85;4.72;;;;;;;16.01;72.34;100192.56;4981351;28;20050;-44
2023/06/29 05:18:16;;;;;;;6.57;4.38;;;;;;;16.00;72.44;100183.88;4982402;28;20521;-48
2023/06/29 05:20:43;;;;;;;7.00;2.75;;;;;;;16.00;72.91;100196.94;4979667;28;20394;-51
2023/06/29 05:23:11;;;;;;;7.25;4.43;;;;;;;15.96;72.57;100186.56;4979843;28;20058;-47
2023/06/29 05:25:39;;;;;;;5.65;3.33;;;;;;;15.94;72.03;100187.44;4977251;28;20378;-47
2023/06/29 05:28:06;;;;;;;8.20;2.97;;;;;;;15.94;72.14;100190.06;4980565;28;20711;-47
2023/06/29 05:30:34;;;;;;;5.85;3.72;;;;;;;15.94;72.62;100197.03;4985841;28;20063;-45
2023/06/29 05:33:00;;;;;;;7.95;3.65;;;;;;;15.94;72.91;100189.19;4987966;28;20054;-45
2023/06/29 05:35:27;;;;;;;5.28;4.18;;;;;;;15.92;72.38;100191.88;4981238;28;20051;-44
2023/06/29 05:37:54;;;;;;;5.95;3.55;;;;;;;15.96;72.42;100202.25;4980039;28;20042;-48
2023/06/29 05:40:21;;;;;;;6.47;4.65;;;;;;;15.94;72.26;100210.97;4984346;28;20057;-45
2023/06/29 05:42:47;;;;;;;8.82;4.68;;;;;;;15.98;72.65;100208.31;4985681;28;20047;-44
2023/06/29 05:45:14;;;;;;;9.38;4.43;;;;;;;15.98;72.63;100203.09;4983250;28;20058;-49
2023/06/29 05:47:41;;;;;;;6.18;3.67;;;;;;;15.99;72.79;100213.50;4986360;28;20050;-46
2023/06/29 05:50:07;;;;;;;5.55;3.38;;;;;;;16.01;73.03;100208.25;4990297;28;20430;-45
2023/06/29 05:52:34;;;;;;;5.00;2.78;;;;;;;16.03;72.20;100209.06;4987949;28;20234;-46
2023/06/29 05:55:02;;;;;;;7.88;3.42;;;;;;;16.04;72.53;100208.16;4984313;28;20058;-49
2023/06/29 05:57:28;;;;;;;5.70;3.55;;;;;;;16.05;72.18;100208.13;4985552;28;20582;-43
2023/06/29 05:59:55;;;;;;;7.22;3.60;;;;;;;16.06;72.08;100211.59;4985245;28;20675;-45
2023/06/29 06:02:22;;;;;;;5.97;3.17;;;;;;;16.07;72.69;100208.09;4981280;28;20050;-46
2023/06/29 06:04:49;;;;;;;6.90;4.43;;;;;;;16.05;71.80;100207.28;4986738;28;20117;-43
2023/06/29 06:07:27;;;;;;;7.05;3.75;;;;;;;16.01;71.94;100210.88;4986092;28;20046;-45
2023/06/29 06:09:54;;;;;;;6.47;3.72;;;;;;;16.01;72.46;100216.94;4988622;28;20133;-45
2023/06/29 06:12:21;;;;;;;7.32;4.35;;;;;;;16.01;71.91;100221.31;4983425;28;20054;-44
2023/06/29 06:14:48;;;;;;;6.28;3.38;;;;;;;16.01;71.71;100211.69;4980896;28;20042;-47
2023/06/29 06:17:15;;;;;;;5.28;2.92;;;;;;;15.98;71.62;100217.03;4978836;28;20235;-46
2023/06/29 06:19:42;;;;;;;10.68;3.80;;;;;;;15.99;72.08;100217.84;4979467;28;20050;-45
2023/06/29 06:22:09;;;;;;;9.77;4.53;;;;;;;15.95;72.24;100219.69;4977056;28;20054;-44
2023/06/29 06:24:36;;;;;;;7.25;4.72;;;;;;;15.92;71.99;100223.22;4978932;28;20109;-46
2023/06/29 06:27:03;;;;;;;6.63;3.65;;;;;;;15.94;72.08;100220.53;4978305;28;20081;-46
2023/06/29 06:29:30;;;;;;;8.25;3.58;;;;;;;15.94;71.78;100216.19;4980357;28;20042;-45
2023/06/29 06:31:56;;;;;;;8.10;4.38;;;;;;;15.97;72.56;100219.66;4980177;28;20038;-44
2023/06/29 06:34:23;;;;;;;6.18;2.85;;;;;;;16.00;72.25;100224.78;4979082;28;20427;-47
2023/06/29 06:36:51;;;;;;;9.20;4.90;;;;;;;16.06;72.38;100224.66;4987901;28;20049;-44
2023/06/29 06:39:18;;;;;;;6.43;4.40;;;;;;;16.11;72.50;100217.56;4976571;28;20046;-46
2023/06/29 06:41:45;;;;;;;8.60;4.03;;;;;;;16.22;72.06;100224.31;4974464;28;20047;-48
2023/06/29 06:44:12;;;;;;;8.30;3.22;;;;;;;16.35;72.45;100220.50;4980008;28;20459;-45
2023/06/29 06:46:38;;;;;;;9.15;4.80;;;;;;;16.55;72.40;100227.03;4974586;28;20130;-46
2023/06/29 06:49:05;;;;;;;7.63;3.65;;;;;;;16.77;72.29;100231.69;4974368;28;20054;-46
2023/06/29 06:51:32;;;;;;;5.05;3.70;;;;;;;16.99;72.28;100236.38;4981329;28;20049;-46
2023/06/29 06:53:59;;;;;;;7.78;3.70;;;;;;;17.16;71.97;100234.19;4984348;28;20048;-46
2023/06/29 06:56:25;;;;;;;6.80;2.95;;;;;;;17.36;72.07;100237.16;4979044;28;20051;-42
2023/06/29 06:58:52;;;;;;;6.07;3.17;;;;;;;17.53;71.50;100241.94;4975975;28;20058;-43
2023/06/29 07:01:21;;;;;;;4.40;3.50;;;;;;;17.74;71.26;100232.59;4986531;28;20047;-44
2023/06/29 07:03:48;;;;;;;4.75;4.03;;;;;;;17.95;70.86;100238.94;4981305;28;20129;-46
2023/06/29 07:06:14;;;;;;;5.35;3.83;;;;;;;18.15;70.97;100239.25;4980970;28;20435;-45
2023/06/29 07:08:41;;;;;;;4.57;2.42;;;;;;;18.31;69.74;100239.63;4981861;28;20461;-45
2023/06/29 07:11:07;;;;;;;4.43;2.88;;;;;;;18.45;69.59;100242.66;4982329;28;20055;-47
2023/06/29 07:13:34;;;;;;;4.38;1.88;;;;;;;18.62;69.15;100238.63;4981479;28;20591;-47
2023/06/29 07:16:01;;;;;;;3.88;2.88;;;;;;;18.84;69.10;100248.38;4981540;28;20502;-45
2023/06/29 07:18:30;;;;;;;5.70;2.55;;;;;;;19.04;67.61;100257.34;4976476;28;20053;-46
2023/06/29 07:20:56;;;;;;;4.28;1.42;;;;;;;19.20;67.41;100255.94;4979011;28;20666;-44
2023/06/29 07:23:26;;;;;;;4.53;2.30;;;;;;;19.39;66.91;100255.28;4991138;28;20057;-49
2023/06/29 07:25:55;;;;;;;3.92;3.17;;;;;;;19.51;65.52;100265.31;4984291;28;20043;-46
2023/06/29 07:28:22;;;;;;;3.55;2.58;;;;;;;19.61;65.55;100264.97;4985394;28;20046;-47
2023/06/29 07:30:51;;;;;;;3.20;1.52;;;;;;;19.72;64.46;100262.81;4981371;28;20417;-47
2023/06/29 07:33:18;;;;;;;4.00;2.30;;;;;;;19.87;64.32;100265.78;4984209;28;20089;-45
2023/06/29 07:35:44;;;;;;;4.38;2.00;;;;;;;19.96;63.18;100270.66;4987700;28;20050;-45
2023/06/29 07:38:12;;;;;;;2.60;2.00;;;;;;;20.11;63.57;100258.75;4976148;28;20050;-46
2023/06/29 07:40:39;;;;;;;3.85;2.28;;;;;;;20.24;62.83;100264.38;4986022;28;20078;-47
2023/06/29 07:43:05;;;;;;;5.78;2.55;;;;;;;20.35;61.63;100271.81;4985402;28;20081;-44
2023/06/29 07:45:32;;;;;;;4.93;3.25;;;;;;;20.43;61.35;100268.88;4984960;28;20116;-43
2023/06/29 07:47:59;;;;;;;3.13;2.15;;;;;;;20.50;60.51;100270.34;4986297;28;20519;-43
2023/06/29 07:50:25;;;;;;;4.15;2.45;;;;;;;20.58;60.10;100266.53;4987781;28;20070;-45
2023/06/29 07:52:53;;;;;;;2.92;2.38;;;;;;;20.73;60.79;100276.44;4986077;28;20052;-45
2023/06/29 07:55:20;;;;;;;2.35;2.15;;;;;;;20.85;58.75;100274.19;4986810;28;20046;-46
2023/06/29 07:57:47;;;;;;;3.92;2.05;;;;;;;20.96;58.61;100265.88;4982437;28;20042;-41
2023/06/29 08:00:17;;;;;;;3.30;2.22;;;;;;;21.11;58.87;100274.91;4984097;28;20042;-46
2023/06/29 08:02:45;;;;;;;3.05;1.38;;;;;;;21.26;58.13;100273.38;4983150;28;20073;-44
2023/06/29 08:05:12;;;;;;;3.22;1.70;;;;;;;21.44;57.52;100271.69;4987383;28;20540;-46
2023/06/29 08:07:42;;;;;;;2.70;1.55;;;;;;;21.65;57.50;100274.28;4987092;28;20050;-47
2023/06/29 08:10:09;;;;;;;2.95;1.70;;;;;;;21.77;55.88;100268.47;4981336;28;20050;-45
2023/06/29 08:12:36;;;;;;;4.78;1.85;;;;;;;21.81;54.60;100263.91;4980953;28;20046;-46
2023/06/29 08:15:03;;;;;;;2.60;1.55;;;;;;;21.81;54.05;100269.19;4981641;28;20054;-46
2023/06/29 08:17:30;;;;;;;3.20;1.75;;;;;;;21.83;53.58;100262.94;4982293;28;20042;-45
2023/06/29 08:19:56;;;;;;;3.03;2.83;;;;;;;21.92;53.79;100271.34;4979810;28;20046;-45
2023/06/29 08:22:23;;;;;;;1.85;1.73;;;;;;;21.96;53.46;100270.28;4974418;28;20046;-45
2023/06/29 08:24:51;;;;;;;2.45;1.77;;;;;;;22.05;52.52;100271.59;4981311;28;20054;-46
2023/06/29 08:27:19;;;;;;;2.05;0.75;;;;;;;22.13;52.26;100273.88;4983601;28;20418;-45
2023/06/29 08:29:46;;;;;;;2.03;1.92;;;;;;;22.20;51.59;100275.28;4982010;28;20042;-44
2023/06/29 08:32:13;;;;;;;2.10;1.67;;;;;;;22.28;51.46;100273.13;4983424;28;20065;-46
2023/06/29 08:34:40;;;;;;;3.08;2.33;;;;;;;22.38;51.83;100270.03;4982775;28;20137;-43
2023/06/29 08:37:06;;;;;;;2.38;1.48;;;;;;;22.53;51.47;100266.66;4986013;28;20042;-45
2023/06/29 08:39:33;;;;;;;1.90;1.15;;;;;;;22.71;51.10;100266.72;4985563;28;20382;-47
2023/06/29 08:42:00;;;;;;;2.67;1.75;;;;;;;22.88;50.56;100272.91;4986495;28;20046;-46
2023/06/29 08:44:30;;;;;;;2.83;1.77;;;;;;;22.98;50.23;100268.88;4985691;28;20069;-43
2023/06/29 08:47:00;;;;;;;2.78;1.90;;;;;;;23.08;50.44;100267.47;4979779;28;20054;-47
2023/06/29 08:49:29;;;;;;;3.50;1.38;;;;;;;23.21;50.01;100272.13;4977352;28;20691;-44
2023/06/29 08:51:58;;;;;;;2.13;1.80;;;;;;;23.32;50.52;100268.91;4983981;28;20074;-45
2023/06/29 08:54:26;;;;;;;2.15;1.90;;;;;;;23.43;49.69;100265.69;4983395;28;20054;-45
2023/06/29 08:56:55;;;;;;;2.22;1.95;;;;;;;23.54;49.23;100263.34;4984101;28;20061;-48
2023/06/29 08:59:23;;;;;;;3.05;2.00;;;;;;;23.65;48.82;100272.50;4979695;28;20141;-44
2023/06/29 09:01:51;;;;;;;2.67;1.95;;;;;;;23.74;49.07;100271.97;4982250;28;20039;-44
2023/06/29 09:04:18;;;;;;;2.95;2.15;;;;;;;23.79;47.87;100267.31;4985241;28;20058;-49
2023/06/29 09:06:46;;;;;;;1.52;1.40;;;;;;;23.78;48.35;100265.59;4986815;28;20057;-45
2023/06/29 09:09:13;;;;;;;2.50;0.77;;;;;;;23.82;48.16;100267.16;4983855;28;20619;-47
2023/06/29 09:11:40;;;;;;;2.97;1.45;;;;;;;23.86;47.85;100263.38;4989015;28;20061;-44
2023/06/29 09:14:09;;;;;;;2.33;1.83;;;;;;;23.93;47.18;100263.03;4990170;28;20133;-46
2023/06/29 09:16:35;;;;;;;3.88;1.70;;;;;;;23.90;47.01;100258.78;4983255;28;20754;-47
2023/06/29 09:19:03;;;;;;;1.73;1.63;;;;;;;23.84;46.53;100265.25;4984689;28;20042;-45
2023/06/29 09:21:30;;;;;;;2.47;2.00;;;;;;;23.83;46.75;100268.84;4989156;28;20061;-43
2023/06/29 09:23:58;;;;;;;2.88;1.25;;;;;;;23.85;46.80;100264.31;4988675;28;20489;-44
2023/06/29 09:26:28;;;;;;;2.70;1.77;;;;;;;23.83;47.03;100263.56;4988997;28;20489;-45
2023/06/29 09:29:01;;;;;;;2.88;1.75;;;;;;;23.88;46.92;100261.50;4981258;28;20233;-44
2023/06/29 09:31:28;;;;;;;4.50;1.85;;;;;;;23.87;46.74;100267.72;4980459;28;20042;-43
2023/06/29 09:33:55;;;;;;;3.40;1.63;;;;;;;23.93;47.10;100263.03;4983307;28;20043;-43
2023/06/29 09:36:27;;;;;;;3.85;3.55;;;;;;;24.02;46.37;100262.53;4986319;28;20062;-45
2023/06/29 09:38:55;;;;;;;3.03;2.08;;;;;;;24.11;46.71;100259.38;4986863;28;20051;-47
2023/06/29 09:41:23;;;;;;;3.17;1.70;;;;;;;24.19;45.33;100263.41;4989706;28;20054;-43
2023/06/29 09:43:52;;;;;;;2.72;1.65;;;;;;;24.16;45.35;100269.72;4986437;28;20510;-46
2023/06/29 09:46:19;;;;;;;;;;;;;;;24.09;45.10;100257.75;4982652;28;20050;-45
2023/06/29 09:48:46;;;;;;;3.33;1.90;;;;;;;24.27;45.88;100261.16;4978596;28;19966;-42
2023/06/29 09:51:20;;;;;;;1.92;1.77;;;;;;;24.41;45.85;100262.19;4970494;28;20106;-43
2023/06/29 09:53:47;;;;;;;3.85;1.83;;;;;;;24.58;46.45;100264.69;4974537;28;20046;-44
2023/06/29 09:56:16;;;;;;;3.45;1.65;;;;;;;24.72;45.78;100265.69;4965510;28;20058;-48
2023/06/29 09:58:43;;;;;;;3.47;2.30;;;;;;;24.85;45.77;100271.97;4971212;28;20054;-42
2023/06/29 10:01:10;;;;;;;2.78;2.35;;;;;;;24.87;46.52;100275.41;4971319;28;20057;-44
2023/06/29 10:03:37;;;;;;;1.65;1.20;;;;;;;24.99;45.55;100268.50;4968957;28;20430;-45
2023/06/29 10:06:11;;;;;;;3.65;2.05;;;;;;;25.11;45.52;100276.66;4969468;28;20052;-45
2023/06/29 10:08:40;;;;;;;1.85;1.58;;;;;;;25.18;45.28;100274.47;4971002;28;20054;-44
2023/06/29 10:11:07;;;;;;;4.38;2.28;;;;;;;25.23;45.44;100283.84;4970693;28;20057;-46
2023/06/29 10:13:43;;;;;;;2.65;2.45;;;;;;;25.22;45.28;100273.34;4972150;28;20051;-46
2023/06/29 10:16:12;;;;;;;6.30;2.08;;;;;;;25.14;44.91;100277.34;4968620;28;20431;-45
2023/06/29 10:18:43;;;;;;;2.50;1.90;;;;;;;25.05;44.56;100277.88;4967074;28;20042;-45
2023/06/29 10:21:10;;;;;;;4.90;2.47;;;;;;;24.94;44.83;100282.97;4967151;28;20120;-47
2023/06/29 10:23:39;;;;;;;2.70;2.20;;;;;;;25.00;45.08;100275.50;4969335;28;20101;-44
2023/06/29 10:26:08;;;;;;;2.50;2.25;;;;;;;25.11;44.47;100277.50;4973766;28;20129;-44
2023/06/29 10:28:35;;;;;;;3.25;1.92;;;;;;;25.31;45.26;100282.53;4970858;28;20114;-45
2023/06/29 10:31:02;;;;;;;4.22;1.77;;;;;;;25.44;44.81;100288.81;4968526;28;20058;-44
2023/06/29 10:33:28;;;;;;;2.80;2.00;;;;;;;25.42;43.95;100291.53;4964499;28;20133;-43
2023/06/29 10:35:58;;;;;;;3.47;2.13;;;;;;;25.29;43.95;100294.09;4970965;28;20126;-46
2023/06/29 10:38:34;;;;;;;3.50;2.15;;;;;;;25.12;43.53;100283.66;4966269;28;20081;-45
2023/06/29 10:41:04;;;;;;;3.33;1.85;;;;;;;25.02;43.65;100286.00;4967928;28;20051;-45
2023/06/29 10:44:00;;;;;;;2.38;2.17;;;;;;;24.78;43.96;100282.06;4973592;28;20046;-48
2023/06/29 10:46:47;;;;;;;5.10;2.40;;;;;;;24.75;45.11;100284.00;4964204;28;20782;-44
2023/06/29 10:52:04;;;;;;;2.72;1.00;;;;;;;24.95;43.12;100282.03;5040679;27;20395;-47
2023/06/29 10:54:31;;;;;;;1.90;0.85;;;;;;;24.92;43.15;100283.06;5055910;28;20044;-46
2023/06/29 10:57:01;;;;;;;1.83;0.90;;;;;;;24.87;43.45;100280.69;5019434;28;20061;-45
2023/06/29 10:59:29;;;;;;;2.53;0.85;;;;;;;24.84;43.40;100286.13;5022367;28;20053;-46
2023/06/29 11:01:56;;;;;;;2.58;0.60;;;;;;;24.79;43.55;100282.91;5035440;28;20157;-46
2023/06/29 11:04:24;;;;;;;1.80;0.73;;;;;;;24.67;43.36;100278.31;5024062;28;20115;-45
2023/06/29 11:06:50;;;;;;;1.55;0.60;;;;;;;24.56;44.24;100292.19;5019701;28;20053;-44
2023/06/29 11:09:19;;;;;;;2.00;0.70;;;;;;;24.52;44.13;100286.25;5021164;28;20060;-44
2023/06/29 11:11:48;;;;;;;3.03;1.20;;;;;;;24.50;43.84;100272.22;5023590;28;20053;-46
2023/06/29 11:14:16;;;;;;;1.83;0.98;;;;;;;24.49;43.65;100278.47;5022407;28;20528;-45
2023/06/29 11:16:43;;;;;;;1.75;0.70;;;;;;;24.54;44.03;100278.19;5021976;28;20053;-46
2023/06/29 11:19:11;;;;;;;2.00;0.60;;;;;;;24.53;43.63;100274.69;5025938;28;20181;-46
2023/06/29 11:21:40;;;;;;;2.90;0.90;;;;;;;24.46;43.80;100284.81;5019578;28;20593;-46
2023/06/29 11:24:27;;;;;;;1.17;0.80;;;;;;;24.39;43.38;100284.28;5022084;28;20558;-44
2023/06/29 11:26:54;;;;;;;2.65;0.82;;;;;;;24.34;43.46;100289.00;5021585;28;20133;-45
2023/06/29 11:29:21;;;;;;;2.97;2.05;;;;;;;24.32;43.72;100290.84;5025685;28;20446;-46